Time;durP1;ratioP1;P1;durP2;ratioP2;P2;SDS_P1;SDS_P2;PMS_P1;PMS_P2;Temp;Humidity;BMP_temperature;BMP_pressure;BME280_temperature;BME280_humidity;BME280_pressure;Samples;Min_cycle;Max_cycle;Signal;HPM_P1;HPM_P2
2022/10/09 00:00:13;;;;;;;0.00;0.00;;;;;;;;;;5075233;28;20399;-89
2022/10/09 00:02:39;;;;;;;0.00;0.00;;;;;;;;;;5075171;28;20090;-89
2022/10/09 00:05:05;;;;;;;0.00;0.00;;;;;;;;;;5058665;28;20041;-88
2022/10/09 00:07:31;;;;;;;0.00;0.00;;;;;;;;;;5075109;28;20057;-89
2022/10/09 00:09:57;;;;;;;0.00;0.00;;;;;;;;;;5075306;28;20044;-89
2022/10/09 00:12:23;;;;;;;0.00;0.00;;;;;;;;;;5075105;28;20047;-87
2022/10/09 00:14:49;;;;;;;0.00;0.00;;;;;;;;;;5074885;28;20045;-88
2022/10/09 00:17:15;;;;;;;0.00;0.00;;;;;;;;;;5075112;28;20051;-89
2022/10/09 00:19:41;;;;;;;0.00;0.00;;;;;;;;;;5074836;28;20096;-88
2022/10/09 00:22:07;;;;;;;0.00;0.00;;;;;;;;;;5074950;28;20059;-90
2022/10/09 00:24:33;;;;;;;0.00;0.00;;;;;;;;;;5074699;28;20161;-87
2022/10/09 00:26:58;;;;;;;0.00;0.00;;;;;;;;;;5058087;28;20037;-88
2022/10/09 00:29:24;;;;;;;0.00;0.00;;;;;;;;;;5074961;28;20037;-88
2022/10/09 00:31:50;;;;;;;0.00;0.00;;;;;;;;;;5058518;28;20044;-88
2022/10/09 00:34:16;;;;;;;0.00;0.00;;;;;;;;;;5058140;28;20044;-88
2022/10/09 00:36:43;;;;;;;0.00;0.00;;;;;;;;;;5057995;28;20046;-88
2022/10/09 00:39:08;;;;;;;0.00;0.00;;;;;;;;;;5074247;28;20531;-87
2022/10/09 00:41:34;;;;;;;0.00;0.00;;;;;;;;;;5074377;28;20033;-87
2022/10/09 00:44:20;;;;;;;0.00;0.00;;;;;;;;;;5074378;28;20436;-87
2022/10/09 00:46:48;;;;;;;0.00;0.00;;;;;;;;;;5057616;28;20037;-87
2022/10/09 00:49:17;;;;;;;0.15;0.00;;;;;;;;;;5074521;28;20063;-87
2022/10/09 00:51:45;;;;;;;0.00;0.00;;;;;;;;;;5074751;28;20044;-89
2022/10/09 00:54:13;;;;;;;0.00;0.00;;;;;;;;;;5057057;28;20426;-87
2022/10/09 00:56:39;;;;;;;0.00;0.00;;;;;;;;;;5074478;28;20045;-89
2022/10/09 00:59:05;;;;;;;0.00;0.00;;;;;;;;;;5057124;28;20447;-86
2022/10/09 01:01:31;;;;;;;0.00;0.00;;;;;;;;;;5073922;28;20058;-88
2022/10/09 01:03:57;;;;;;;0.00;0.00;;;;;;;;;;5057079;28;20040;-88
2022/10/09 01:06:32;;;;;;;0.00;0.00;;;;;;;;;;5057349;28;20117;-88
2022/10/09 01:09:07;;;;;;;0.00;0.00;;;;;;;;;;5074285;28;20471;-88
2022/10/09 01:11:39;;;;;;;0.00;0.00;;;;;;;;;;5074343;28;20041;-88
2022/10/09 01:14:18;;;;;;;0.00;0.00;;;;;;;;;;5073964;28;20048;-88
2022/10/09 01:16:47;;;;;;;0.00;0.00;;;;;;;;;;5073918;28;20040;-89
2022/10/09 01:19:40;;;;;;;0.00;0.00;;;;;;;;;;5073596;28;20040;-88
2022/10/09 01:22:19;;;;;;;0.00;0.00;;;;;;;;;;5057228;28;20048;-88
2022/10/09 01:24:47;;;;;;;0.00;0.00;;;;;;;;;;5074009;28;20084;-88
2022/10/09 01:27:21;;;;;;;0.00;0.00;;;;;;;;;;5056975;28;20060;-87
2022/10/09 01:29:49;;;;;;;0.00;0.00;;;;;;;;;;5073484;28;20042;-87
2022/10/09 01:32:18;;;;;;;0.00;0.00;;;;;;;;;;5073710;28;20063;-88
2022/10/09 01:34:45;;;;;;;0.00;0.00;;;;;;;;;;5073639;28;20052;-88
2022/10/09 01:37:13;;;;;;;0.00;0.00;;;;;;;;;;5073302;28;20051;-88
2022/10/09 01:39:39;;;;;;;0.00;0.00;;;;;;;;;;5073134;28;20079;-87
2022/10/09 01:42:05;;;;;;;0.00;0.00;;;;;;;;;;5073490;28;20040;-89
2022/10/09 01:44:32;;;;;;;0.00;0.00;;;;;;;;;;5056258;28;20036;-89
2022/10/09 01:46:59;;;;;;;0.00;0.00;;;;;;;;;;5056548;28;20082;-87
2022/10/09 01:49:43;;;;;;;0.00;0.00;;;;;;;;;;5056554;28;20037;-88
2022/10/09 01:52:18;;;;;;;0.00;0.00;;;;;;;;;;5073495;28;20069;-88
2022/10/09 01:55:00;;;;;;;0.00;0.00;;;;;;;;;;5072989;28;20130;-89
2022/10/09 01:57:28;;;;;;;0.00;0.00;;;;;;;;;;5073386;28;20124;-88
2022/10/09 01:59:55;;;;;;;0.00;0.00;;;;;;;;;;5056382;28;20475;-88
2022/10/09 02:02:22;;;;;;;0.00;0.00;;;;;;;;;;5072855;28;20059;-88
2022/10/09 02:04:48;;;;;;;0.00;0.00;;;;;;;;;;5072807;28;20072;-88
2022/10/09 02:07:15;;;;;;;0.00;0.00;;;;;;;;;;5073088;28;20053;-92
2022/10/09 02:09:43;;;;;;;0.00;0.00;;;;;;;;;;5072793;28;20161;-87
2022/10/09 02:12:10;;;;;;;0.00;0.00;;;;;;;;;;5073096;28;20543;-87
2022/10/09 02:14:36;;;;;;;0.00;0.00;;;;;;;;;;5055269;28;20087;-86
2022/10/09 02:17:04;;;;;;;0.00;0.00;;;;;;;;;;5072785;28;20472;-88
2022/10/09 02:19:51;;;;;;;0.00;0.00;;;;;;;;;;5055828;28;20434;-88
2022/10/09 02:22:22;;;;;;;0.00;0.00;;;;;;;;;;5072326;28;20037;-87
2022/10/09 02:24:48;;;;;;;0.00;0.00;;;;;;;;;;5072211;28;20123;-88
2022/10/09 02:27:15;;;;;;;0.00;0.00;;;;;;;;;;5072387;28;20051;-88
2022/10/09 02:29:42;;;;;;;0.00;0.00;;;;;;;;;;5072125;28;20101;-88
2022/10/09 02:32:09;;;;;;;0.00;0.00;;;;;;;;;;5072181;28;20045;-89
2022/10/09 02:34:35;;;;;;;0.00;0.00;;;;;;;;;;5072223;28;20617;-89
2022/10/09 02:37:01;;;;;;;0.00;0.00;;;;;;;;;;5055523;28;20126;-87
2022/10/09 02:39:27;;;;;;;0.00;0.00;;;;;;;;;;5055244;28;20408;-86
2022/10/09 02:41:53;;;;;;;0.00;0.00;;;;;;;;;;5055231;28;20041;-87
2022/10/09 02:44:19;;;;;;;0.00;0.00;;;;;;;;;;5054911;28;20037;-87
2022/10/09 02:46:45;;;;;;;0.00;0.00;;;;;;;;;;5072059;28;20039;-87
2022/10/09 02:49:11;;;;;;;0.00;0.00;;;;;;;;;;5071633;28;20119;-88
2022/10/09 02:51:37;;;;;;;0.00;0.00;;;;;;;;;;5055003;28;20044;-88
2022/10/09 02:54:05;;;;;;;0.00;0.00;;;;;;;;;;5071722;28;20054;-87
2022/10/09 02:56:31;;;;;;;0.00;0.00;;;;;;;;;;5055276;28;20204;-88
2022/10/09 02:58:57;;;;;;;0.00;0.00;;;;;;;;;;5071761;28;20052;-87
2022/10/09 03:01:24;;;;;;;0.00;0.00;;;;;;;;;;5071709;28;20036;-88
2022/10/09 03:03:49;;;;;;;0.00;0.00;;;;;;;;;;5071491;28;20491;-88
2022/10/09 03:06:17;;;;;;;0.00;0.00;;;;;;;;;;5071410;28;20095;-87
2022/10/09 03:08:44;;;;;;;0.00;0.00;;;;;;;;;;5071730;28;20098;-88
2022/10/09 03:11:11;;;;;;;0.00;0.00;;;;;;;;;;5055012;28;20075;-88
2022/10/09 03:13:38;;;;;;;0.00;0.00;;;;;;;;;;5071329;28;20082;-88
2022/10/09 03:16:08;;;;;;;0.00;0.00;;;;;;;;;;5054998;28;20093;-87
2022/10/09 03:18:35;;;;;;;0.80;0.20;;;;;;;;;;5054660;28;20044;-88
2022/10/09 03:21:04;;;;;;;0.00;0.00;;;;;;;;;;5071899;28;20373;-87
2022/10/09 03:23:30;;;;;;;0.00;0.00;;;;;;;;;;5054985;28;20097;-88
2022/10/09 03:25:57;;;;;;;0.00;0.00;;;;;;;;;;5056360;28;20523;-88
2022/10/09 03:28:23;;;;;;;0.00;0.00;;;;;;;;;;5075950;28;20511;-88
2022/10/09 03:30:49;;;;;;;0.00;0.00;;;;;;;;;;5058663;28;20044;-85
2022/10/09 03:33:15;;;;;;;0.00;0.00;;;;;;;;;;5058820;28;20047;-85
2022/10/09 03:35:41;;;;;;;0.00;0.00;;;;;;;;;;5075559;28;20423;-88
2022/10/09 03:38:07;;;;;;;0.00;0.00;;;;;;;;;;5075407;28;20512;-88
2022/10/09 03:40:36;;;;;;;0.00;0.00;;;;;;;;;;5075126;28;20036;-86
2022/10/09 03:43:02;;;;;;;0.00;0.00;;;;;;;;;;5075298;28;20106;-86
2022/10/09 03:45:28;;;;;;;0.00;0.00;;;;;;;;;;5074941;28;20060;-86
2022/10/09 03:47:54;;;;;;;0.00;0.00;;;;;;;;;;5075280;28;20044;-85
2022/10/09 03:50:20;;;;;;;0.00;0.00;;;;;;;;;;5075501;28;20048;-86
2022/10/09 03:52:46;;;;;;;0.00;0.00;;;;;;;;;;5075570;28;20055;-86
2022/10/09 03:55:12;;;;;;;0.00;0.00;;;;;;;;;;5074955;28;20134;-85
2022/10/09 03:57:38;;;;;;;0.00;0.00;;;;;;;;;;5058143;28;20556;-85
2022/10/09 04:00:07;;;;;;;0.00;0.00;;;;;;;;;;5074613;28;20094;-85
2022/10/09 04:02:33;;;;;;;0.00;0.00;;;;;;;;;;5074916;28;20089;-86
2022/10/09 04:04:59;;;;;;;0.00;0.00;;;;;;;;;;5074723;28;20060;-87
2022/10/09 04:07:26;;;;;;;0.00;0.00;;;;;;;;;;5058133;28;20143;-86
2022/10/09 04:09:51;;;;;;;0.00;0.00;;;;;;;;;;5074637;28;20053;-85
2022/10/09 04:12:17;;;;;;;0.00;0.00;;;;;;;;;;5074810;28;20040;-85
2022/10/09 04:14:43;;;;;;;0.00;0.00;;;;;;;;;;5074492;28;20040;-85
2022/10/09 04:17:09;;;;;;;0.00;0.00;;;;;;;;;;5057960;28;20479;-85
2022/10/09 04:19:35;;;;;;;0.00;0.00;;;;;;;;;;5074503;28;20127;-85
2022/10/09 04:22:01;;;;;;;0.00;0.00;;;;;;;;;;5074519;28;20036;-86
2022/10/09 04:24:27;;;;;;;0.00;0.00;;;;;;;;;;5074420;28;20517;-86
2022/10/09 04:26:53;;;;;;;0.00;0.00;;;;;;;;;;5074373;28;20124;-86
2022/10/09 04:29:19;;;;;;;0.00;0.00;;;;;;;;;;5074162;28;20054;-86
2022/10/09 04:31:45;;;;;;;0.00;0.00;;;;;;;;;;5058008;28;20131;-87
2022/10/09 04:34:11;;;;;;;0.00;0.00;;;;;;;;;;5074401;28;20124;-86
2022/10/09 04:36:37;;;;;;;0.00;0.00;;;;;;;;;;5073855;28;20074;-87
2022/10/09 04:39:03;;;;;;;0.00;0.00;;;;;;;;;;5057836;28;20056;-88
2022/10/09 04:41:29;;;;;;;0.00;0.00;;;;;;;;;;5074153;28;20097;-85
2022/10/09 04:43:56;;;;;;;0.00;0.00;;;;;;;;;;5073947;28;20493;-87
2022/10/09 04:46:22;;;;;;;0.00;0.00;;;;;;;;;;5074212;28;20048;-86
2022/10/09 04:48:49;;;;;;;0.00;0.00;;;;;;;;;;5074147;28;20126;-87
2022/10/09 04:51:16;;;;;;;0.00;0.00;;;;;;;;;;5073919;28;20044;-86
2022/10/09 04:53:42;;;;;;;0.00;0.00;;;;;;;;;;5074125;28;20040;-86
2022/10/09 04:56:10;;;;;;;0.00;0.00;;;;;;;;;;5057188;28;20059;-85
2022/10/09 04:58:36;;;;;;;0.00;0.00;;;;;;;;;;5073719;28;20098;-86
2022/10/09 05:01:08;;;;;;;0.00;0.00;;;;;;;;;;5057151;28;20032;-86
2022/10/09 05:03:37;;;;;;;0.00;0.00;;;;;;;;;;5073796;28;20079;-86
2022/10/09 05:06:04;;;;;;;0.00;0.00;;;;;;;;;;5073353;28;20102;-85
2022/10/09 05:08:30;;;;;;;0.00;0.00;;;;;;;;;;5057049;28;20472;-85
2022/10/09 05:11:00;;;;;;;0.00;0.00;;;;;;;;;;5073403;28;20476;-85
2022/10/09 05:13:28;;;;;;;0.00;0.00;;;;;;;;;;5057042;28;20434;-86
2022/10/09 05:15:54;;;;;;;0.00;0.00;;;;;;;;;;5056795;28;20044;-86
2022/10/09 05:18:20;;;;;;;0.00;0.00;;;;;;;;;;5073505;28;20052;-87
2022/10/09 05:20:46;;;;;;;0.00;0.00;;;;;;;;;;5073462;28;20556;-87
2022/10/09 05:23:12;;;;;;;0.00;0.00;;;;;;;;;;5056881;28;20094;-86
2022/10/09 05:25:38;;;;;;;0.00;0.00;;;;;;;;;;5056855;28;20091;-87
2022/10/09 05:28:05;;;;;;;0.00;0.00;;;;;;;;;;5057003;28;20045;-87
2022/10/09 05:30:31;;;;;;;0.00;0.00;;;;;;;;;;5073051;28;20126;-86
2022/10/09 05:32:57;;;;;;;0.00;0.00;;;;;;;;;;5073249;28;20062;-85
2022/10/09 05:35:23;;;;;;;0.00;0.00;;;;;;;;;;5072949;28;20094;-87
2022/10/09 05:37:49;;;;;;;0.00;0.00;;;;;;;;;;5073484;28;20414;-85
2022/10/09 05:40:15;;;;;;;0.00;0.00;;;;;;;;;;5073049;28;20036;-86
2022/10/09 05:42:41;;;;;;;0.00;0.00;;;;;;;;;;5073124;28;20452;-87
2022/10/09 05:45:07;;;;;;;0.00;0.00;;;;;;;;;;5056432;28;20131;-86
2022/10/09 05:47:33;;;;;;;0.00;0.00;;;;;;;;;;5072737;28;20398;-87
2022/10/09 05:49:59;;;;;;;0.00;0.00;;;;;;;;;;5055806;28;20041;-86
2022/10/09 05:52:25;;;;;;;0.00;0.00;;;;;;;;;;5056423;28;20052;-86
2022/10/09 05:54:51;;;;;;;0.00;0.00;;;;;;;;;;5072821;28;20166;-87
2022/10/09 05:57:17;;;;;;;0.00;0.00;;;;;;;;;;5055885;28;20048;-86
2022/10/09 05:59:43;;;;;;;0.00;0.00;;;;;;;;;;5056302;28;20200;-86
2022/10/09 06:02:09;;;;;;;0.00;0.00;;;;;;;;;;5072473;28;20166;-86
2022/10/09 06:04:35;;;;;;;0.00;0.00;;;;;;;;;;5073029;28;20499;-90
2022/10/09 06:07:01;;;;;;;0.00;0.00;;;;;;;;;;5072999;28;20048;-91
2022/10/09 06:09:27;;;;;;;0.00;0.00;;;;;;;;;;5056833;28;20432;-87
2022/10/09 06:11:54;;;;;;;0.00;0.00;;;;;;;;;;5073131;28;20102;-89
2022/10/09 06:14:20;;;;;;;0.00;0.00;;;;;;;;;;5073307;28;20075;-88
2022/10/09 06:16:47;;;;;;;0.00;0.00;;;;;;;;;;5056609;28;20055;-89
2022/10/09 06:19:14;;;;;;;0.00;0.00;;;;;;;;;;5073081;28;20123;-88
2022/10/09 06:21:40;;;;;;;0.00;0.00;;;;;;;;;;5072870;28;20040;-87
2022/10/09 06:24:07;;;;;;;0.00;0.00;;;;;;;;;;5072917;28;20052;-89
2022/10/09 06:26:35;;;;;;;0.00;0.00;;;;;;;;;;5056422;28;20383;-90
2022/10/09 06:29:02;;;;;;;0.00;0.00;;;;;;;;;;5073388;28;20048;-89
2022/10/09 06:31:29;;;;;;;0.00;0.00;;;;;;;;;;5072683;28;20044;-88
2022/10/09 06:33:57;;;;;;;0.00;0.00;;;;;;;;;;5072766;28;20552;-89
2022/10/09 06:36:31;;;;;;;0.00;0.00;;;;;;;;;;5055929;28;20044;-88
2022/10/09 06:38:59;;;;;;;0.00;0.00;;;;;;;;;;5072532;28;20044;-88
2022/10/09 06:41:25;;;;;;;0.00;0.00;;;;;;;;;;5072417;28;20507;-87
2022/10/09 06:43:51;;;;;;;0.00;0.00;;;;;;;;;;5072259;28;20078;-86
2022/10/09 06:46:17;;;;;;;0.00;0.00;;;;;;;;;;5072387;28;20094;-92
2022/10/09 06:48:43;;;;;;;0.00;0.00;;;;;;;;;;5055713;28;20043;-90
2022/10/09 06:51:13;;;;;;;0.00;0.00;;;;;;;;;;5055118;28;20392;-87
2022/10/09 06:53:40;;;;;;;0.00;0.00;;;;;;;;;;5072088;28;20052;-87
2022/10/09 06:56:07;;;;;;;0.00;0.00;;;;;;;;;;5056231;28;20055;-88
2022/10/09 06:58:33;;;;;;;0.00;0.00;;;;;;;;;;5055650;28;20040;-88
2022/10/09 07:01:13;;;;;;;0.00;0.00;;;;;;;;;;5071789;28;20097;-88
2022/10/09 07:03:40;;;;;;;0.00;0.00;;;;;;;;;;5071905;28;20036;-87
2022/10/09 07:06:06;;;;;;;0.00;0.00;;;;;;;;;;5054845;28;20064;-85
2022/10/09 07:08:32;;;;;;;0.00;0.00;;;;;;;;;;5055745;28;20045;-88
2022/10/09 07:10:58;;;;;;;0.00;0.00;;;;;;;;;;5071954;28;20048;-87
2022/10/09 07:13:24;;;;;;;0.00;0.00;;;;;;;;;;5072367;28;20040;-89
2022/10/09 07:15:50;;;;;;;0.00;0.00;;;;;;;;;;5055480;28;20044;-86
2022/10/09 07:18:16;;;;;;;0.00;0.00;;;;;;;;;;5071553;28;20107;-87
2022/10/09 07:20:42;;;;;;;0.00;0.00;;;;;;;;;;5071707;28;20105;-86
2022/10/09 07:23:08;;;;;;;0.00;0.00;;;;;;;;;;5069607;28;20037;-87
2022/10/09 07:25:37;;;;;;;0.00;0.00;;;;;;;;;;5072084;28;20403;-86
2022/10/09 07:28:03;;;;;;;0.00;0.00;;;;;;;;;;5054922;28;20045;-88
2022/10/09 07:30:29;;;;;;;0.00;0.00;;;;;;;;;;5071396;28;20430;-88
2022/10/09 07:32:55;;;;;;;0.00;0.00;;;;;;;;;;5071321;28;20048;-88
2022/10/09 07:35:21;;;;;;;0.00;0.00;;;;;;;;;;5071731;28;20076;-88
2022/10/09 07:37:47;;;;;;;0.00;0.00;;;;;;;;;;5072143;28;20048;-87
2022/10/09 07:40:13;;;;;;;0.00;0.00;;;;;;;;;;5071613;28;20040;-88
2022/10/09 07:42:39;;;;;;;0.00;0.00;;;;;;;;;;5071414;28;20463;-86
2022/10/09 07:45:05;;;;;;;0.00;0.00;;;;;;;;;;5071465;28;20036;-87
2022/10/09 07:47:31;;;;;;;0.00;0.00;;;;;;;;;;5071424;28;20068;-87
2022/10/09 07:49:57;;;;;;;0.00;0.00;;;;;;;;;;5071681;28;20076;-87
2022/10/09 07:52:23;;;;;;;0.00;0.00;;;;;;;;;;5055215;28;20071;-88
2022/10/09 07:54:49;;;;;;;0.00;0.00;;;;;;;;;;5071206;28;20136;-87
2022/10/09 07:57:15;;;;;;;0.00;0.00;;;;;;;;;;5054463;28;20135;-87
2022/10/09 07:59:42;;;;;;;0.00;0.00;;;;;;;;;;5071259;28;20040;-88
2022/10/09 08:02:08;;;;;;;0.00;0.00;;;;;;;;;;5054437;28;20041;-87
2022/10/09 08:04:37;;;;;;;0.00;0.00;;;;;;;;;;5054337;28;20041;-86
2022/10/09 08:07:04;;;;;;;0.00;0.00;;;;;;;;;;5070755;28;20084;-88
2022/10/09 08:09:30;;;;;;;0.00;0.00;;;;;;;;;;5054339;28;20048;-86
2022/10/09 08:11:57;;;;;;;0.00;0.00;;;;;;;;;;5072105;28;20052;-88
2022/10/09 08:14:23;;;;;;;0.00;0.00;;;;;;;;;;5074585;28;20040;-87
2022/10/09 08:16:49;;;;;;;0.00;0.00;;;;;;;;;;5074545;28;20040;-86
2022/10/09 08:19:15;;;;;;;0.00;0.00;;;;;;;;;;5057807;28;20123;-88
2022/10/09 08:21:41;;;;;;;0.00;0.00;;;;;;;;;;5074743;28;20076;-88
2022/10/09 08:24:09;;;;;;;0.00;0.00;;;;;;;;;;5058054;28;20467;-87
2022/10/09 08:26:35;;;;;;;0.00;0.00;;;;;;;;;;5074469;28;20041;-88
2022/10/09 08:29:02;;;;;;;0.00;0.00;;;;;;;;;;5074760;28;20037;-88
2022/10/09 08:31:29;;;;;;;0.00;0.00;;;;;;;;;;5075160;28;20079;-87
2022/10/09 08:33:56;;;;;;;0.00;0.00;;;;;;;;;;5074484;28;20048;-88
2022/10/09 08:36:22;;;;;;;0.00;0.00;;;;;;;;;;5057995;28;20041;-87
2022/10/09 08:38:48;;;;;;;0.00;0.00;;;;;;;;;;5057448;28;20048;-87
2022/10/09 08:41:27;;;;;;;0.00;0.00;;;;;;;;;;5074472;28;20048;-87
2022/10/09 08:44:00;;;;;;;0.00;0.00;;;;;;;;;;5074262;28;20036;-88
2022/10/09 08:46:30;;;;;;;0.00;0.00;;;;;;;;;;5074641;28;20044;-87
2022/10/09 08:48:56;;;;;;;0.00;0.00;;;;;;;;;;5074507;28;20044;-87
2022/10/09 08:51:25;;;;;;;0.00;0.00;;;;;;;;;;5074352;28;20041;-88
2022/10/09 08:54:12;;;;;;;0.00;0.00;;;;;;;;;;5057729;28;20074;-87
2022/10/09 08:56:38;;;;;;;0.00;0.00;;;;;;;;;;5074377;28;20070;-87
2022/10/09 08:59:04;;;;;;;0.00;0.00;;;;;;;;;;5073994;28;20174;-87
2022/10/09 09:01:44;;;;;;;0.00;0.00;;;;;;;;;;5074237;28;20040;-88
2022/10/09 09:04:13;;;;;;;0.00;0.00;;;;;;;;;;5074208;28;20048;-86
2022/10/09 09:07:02;;;;;;;0.00;0.00;;;;;;;;;;5073973;28;20053;-87
2022/10/09 09:09:28;;;;;;;0.00;0.00;;;;;;;;;;5073961;28;20416;-88
2022/10/09 09:12:03;;;;;;;0.00;0.00;;;;;;;;;;5074034;28;20055;-86
2022/10/09 09:14:29;;;;;;;;;;;;;;;;;;5074146;28;20072;-88
2022/10/09 09:17:14;;;;;;;0.00;0.00;;;;;;;;;;5057036;28;19963;-88
2022/10/09 09:19:45;;;;;;;0.00;0.00;;;;;;;;;;5073792;28;20045;-90
2022/10/09 09:22:13;;;;;;;0.00;0.00;;;;;;;;;;5056835;28;20043;-86
2022/10/09 09:24:46;;;;;;;0.00;0.00;;;;;;;;;;5074504;28;20043;-91
2022/10/09 09:27:14;;;;;;;0.00;0.00;;;;;;;;;;5074680;28;20037;-94
2022/10/09 09:29:43;;;;;;;0.00;0.00;;;;;;;;;;5074146;28;20037;-89
2022/10/09 09:32:14;;;;;;;0.00;0.00;;;;;;;;;;5057112;28;20119;-89
2022/10/09 09:34:41;;;;;;;0.00;0.00;;;;;;;;;;5074240;28;20555;-93
2022/10/09 09:37:09;;;;;;;0.00;0.00;;;;;;;;;;5074045;28;20045;-89
2022/10/09 09:39:36;;;;;;;0.00;0.00;;;;;;;;;;5073975;28;20045;-91
2022/10/09 09:42:12;;;;;;;0.00;0.00;;;;;;;;;;5073920;28;20037;-89
2022/10/09 09:44:38;;;;;;;;;;;;;;;;;;5057514;28;20048;-86
2022/10/09 09:47:15;;;;;;;0.00;0.00;;;;;;;;;;5057084;28;20436;-85
2022/10/09 09:49:52;;;;;;;0.00;0.00;;;;;;;;;;5073635;28;20041;-89
2022/10/09 09:52:18;;;;;;;0.00;0.00;;;;;;;;;;5073818;28;20048;-88
2022/10/09 09:54:47;;;;;;;0.00;0.00;;;;;;;;;;5056625;28;20040;-87
2022/10/09 09:57:27;;;;;;;0.00;0.00;;;;;;;;;;5056716;28;20051;-88
2022/10/09 09:59:53;;;;;;;0.00;0.00;;;;;;;;;;5056826;28;20047;-88
2022/10/09 10:02:19;;;;;;;0.00;0.00;;;;;;;;;;5056906;28;20396;-91
2022/10/09 10:04:49;;;;;;;0.00;0.00;;;;;;;;;;5073560;28;20047;-91
2022/10/09 10:07:26;;;;;;;0.00;0.00;;;;;;;;;;5056408;28;20559;-92
2022/10/09 10:10:01;;;;;;;0.00;0.00;;;;;;;;;;5073374;28;20055;-93
2022/10/09 10:12:27;;;;;;;0.00;0.00;;;;;;;;;;5073439;28;20052;-93
2022/10/09 10:14:53;;;;;;;0.00;0.00;;;;;;;;;;5056505;28;20044;-93
2022/10/09 10:17:25;;;;;;;0.00;0.00;;;;;;;;;;5073599;28;20399;-92
2022/10/09 10:19:51;;;;;;;0.00;0.00;;;;;;;;;;5073538;28;20078;-95
2022/10/09 10:22:23;;;;;;;0.00;0.00;;;;;;;;;;5073470;28;20464;-92
2022/10/09 10:24:51;;;;;;;0.00;0.00;;;;;;;;;;5072955;28;20044;-92
2022/10/09 10:27:35;;;;;;;0.00;0.00;;;;;;;;;;5073105;28;20048;-93
2022/10/09 10:30:03;;;;;;;0.00;0.00;;;;;;;;;;5073403;28;20427;-94
2022/10/09 10:32:34;;;;;;;0.00;0.00;;;;;;;;;;5056578;28;20028;-91
2022/10/09 10:35:09;;;;;;;0.00;0.00;;;;;;;;;;5072485;28;20094;-91
2022/10/09 10:37:38;;;;;;;0.00;0.00;;;;;;;;;;5073178;28;20097;-92
2022/10/09 10:40:25;;;;;;;0.00;0.00;;;;;;;;;;5056465;28;20052;-92
2022/10/09 10:43:07;;;;;;;0.00;0.00;;;;;;;;;;5052460;28;20127;-92
2022/10/09 10:45:44;;;;;;;0.00;0.00;;;;;;;;;;5073244;28;20032;-92
2022/10/09 10:48:30;;;;;;;0.00;0.00;;;;;;;;;;5072813;28;20043;-92
2022/10/09 10:51:15;;;;;;;0.00;0.00;;;;;;;;;;5072654;28;20090;-93
2022/10/09 10:53:44;;;;;;;0.00;0.00;;;;;;;;;;5072571;28;20045;-91
2022/10/09 10:56:19;;;;;;;0.00;0.00;;;;;;;;;;5072708;28;20090;-91
2022/10/09 10:58:52;;;;;;;0.00;0.00;;;;;;;;;;5072545;28;20048;-91
2022/10/09 11:01:38;;;;;;;0.00;0.00;;;;;;;;;;5072940;28;20045;-91
2022/10/09 11:04:23;;;;;;;0.00;0.00;;;;;;;;;;5072428;28;20040;-90
2022/10/09 11:07:04;;;;;;;0.00;0.00;;;;;;;;;;5072471;28;20052;-91
2022/10/09 11:09:33;;;;;;;0.00;0.00;;;;;;;;;;5072874;28;20472;-91
2022/10/09 11:12:08;;;;;;;0.00;0.00;;;;;;;;;;5072935;28;20083;-93
2022/10/09 11:14:53;;;;;;;0.00;0.00;;;;;;;;;;5072543;28;20047;-90
2022/10/09 11:17:20;;;;;;;0.00;0.00;;;;;;;;;;5072165;28;20045;-91
2022/10/09 11:20:15;;;;;;;0.00;0.00;;;;;;;;;;5055743;28;20361;-90
2022/10/09 11:22:41;;;;;;;0.00;0.00;;;;;;;;;;5059916;28;20063;-91
2022/10/09 11:25:19;;;;;;;0.00;0.00;;;;;;;;;;5055457;28;20036;-88
2022/10/09 11:27:50;;;;;;;0.00;0.00;;;;;;;;;;5058728;28;20090;-92
2022/10/09 11:30:17;;;;;;;0.00;0.00;;;;;;;;;;5055716;28;20040;-91
2022/10/09 11:32:59;;;;;;;0.00;0.00;;;;;;;;;;5055876;28;20388;-93
2022/10/09 11:35:27;;;;;;;0.00;0.00;;;;;;;;;;5072271;28;20571;-95
2022/10/09 11:37:58;;;;;;;0.00;0.00;;;;;;;;;;5072477;28;20047;-94
2022/10/09 11:40:26;;;;;;;0.00;0.00;;;;;;;;;;5055877;28;20484;-93
2022/10/09 11:43:07;;;;;;;0.00;0.00;;;;;;;;;;5055950;28;20048;-92
2022/10/09 11:45:49;;;;;;;0.00;0.00;;;;;;;;;;5055560;28;20044;-93
2022/10/09 11:48:25;;;;;;;0.00;0.00;;;;;;;;;;5075951;28;20048;-93
2022/10/09 11:50:51;;;;;;;0.00;0.00;;;;;;;;;;5076553;28;20051;-94
2022/10/09 11:53:18;;;;;;;0.00;0.00;;;;;;;;;;5076572;28;20549;-94
2022/10/09 11:55:47;;;;;;;0.00;0.00;;;;;;;;;;5061124;28;20036;-93
2022/10/09 11:58:17;;;;;;;0.00;0.00;;;;;;;;;;5059761;28;20066;-94
2022/10/09 12:00:43;;;;;;;0.00;0.00;;;;;;;;;;5059295;28;20365;-90
2022/10/09 12:03:22;;;;;;;0.00;0.00;;;;;;;;;;5061760;28;20040;-90
2022/10/09 12:05:49;;;;;;;0.00;0.00;;;;;;;;;;5059149;28;20079;-95
2022/10/09 12:08:25;;;;;;;0.00;0.00;;;;;;;;;;5060466;28;20132;-91
2022/10/09 12:10:57;;;;;;;0.00;0.00;;;;;;;;;;5059883;28;20078;-92
2022/10/09 12:13:40;;;;;;;0.00;0.00;;;;;;;;;;5059791;28;20127;-85
2022/10/09 12:16:07;;;;;;;0.00;0.00;;;;;;;;;;5059523;28;20045;-92
2022/10/09 12:18:34;;;;;;;0.00;0.00;;;;;;;;;;5059330;28;20125;-93
2022/10/09 12:21:04;;;;;;;0.00;0.00;;;;;;;;;;5075954;28;20059;-93
2022/10/09 12:23:32;;;;;;;0.00;0.00;;;;;;;;;;5075850;28;20060;-91
2022/10/09 12:26:02;;;;;;;0.00;0.00;;;;;;;;;;5075716;28;20043;-94
2022/10/09 12:28:34;;;;;;;0.00;0.00;;;;;;;;;;5076203;28;20048;-92
2022/10/09 12:31:02;;;;;;;0.00;0.00;;;;;;;;;;5059507;28;20059;-95
2022/10/09 12:33:41;;;;;;;0.00;0.00;;;;;;;;;;5075907;28;20091;-92
2022/10/09 12:36:13;;;;;;;0.00;0.00;;;;;;;;;;5075924;28;20045;-94
2022/10/09 12:38:42;;;;;;;0.00;0.00;;;;;;;;;;5075568;28;20075;-92
2022/10/09 12:41:14;;;;;;;0.00;0.00;;;;;;;;;;5075760;28;20514;-94
2022/10/09 12:43:43;;;;;;;0.00;0.00;;;;;;;;;;5058873;28;20037;-91
2022/10/09 12:46:10;;;;;;;0.00;0.00;;;;;;;;;;5075484;28;20097;-93
2022/10/09 12:48:40;;;;;;;0.00;0.00;;;;;;;;;;5076255;28;20388;-93
2022/10/09 12:51:21;;;;;;;0.00;0.00;;;;;;;;;;5075352;28;20052;-94
2022/10/09 12:53:48;;;;;;;0.00;0.00;;;;;;;;;;5075345;28;20127;-94
2022/10/09 12:56:14;;;;;;;0.00;0.00;;;;;;;;;;5075588;28;20044;-93
2022/10/09 12:58:49;;;;;;;0.00;0.00;;;;;;;;;;5075195;28;20040;-93
2022/10/09 13:01:16;;;;;;;0.00;0.00;;;;;;;;;;5058839;28;20037;-93
2022/10/09 13:03:44;;;;;;;0.00;0.00;;;;;;;;;;5058771;28;20113;-94
2022/10/09 13:06:15;;;;;;;0.00;0.00;;;;;;;;;;5058483;28;20061;-93
2022/10/09 13:08:41;;;;;;;0.00;0.00;;;;;;;;;;5058593;28;20041;-92
2022/10/09 13:11:12;;;;;;;0.00;0.00;;;;;;;;;;5074974;28;20076;-91
2022/10/09 13:13:38;;;;;;;0.00;0.00;;;;;;;;;;5075062;28;20072;-90
2022/10/09 13:16:08;;;;;;;0.00;0.00;;;;;;;;;;5074790;28;20040;-91
2022/10/09 13:18:37;;;;;;;0.00;0.00;;;;;;;;;;5058461;28;20549;-94
2022/10/09 13:21:16;;;;;;;0.00;0.00;;;;;;;;;;5058158;28;20047;-92
2022/10/09 13:23:51;;;;;;;0.00;0.00;;;;;;;;;;5058717;28;20036;-93
2022/10/09 13:26:28;;;;;;;0.00;0.00;;;;;;;;;;5074446;28;20105;-92
2022/10/09 13:28:55;;;;;;;0.00;0.00;;;;;;;;;;5058261;28;20047;-90
2022/10/09 13:31:21;;;;;;;0.00;0.00;;;;;;;;;;5075077;28;20041;-94
2022/10/09 13:33:47;;;;;;;0.00;0.00;;;;;;;;;;5075082;28;20071;-93
2022/10/09 13:36:17;;;;;;;0.00;0.00;;;;;;;;;;5057699;28;20036;-90
2022/10/09 13:38:47;;;;;;;0.00;0.00;;;;;;;;;;5066176;28;20471;-93
2022/10/09 13:41:19;;;;;;;0.00;0.00;;;;;;;;;;5057510;28;20072;-93
2022/10/09 13:43:45;;;;;;;0.00;0.00;;;;;;;;;;5058836;28;20044;-91
2022/10/09 13:46:17;;;;;;;0.00;0.00;;;;;;;;;;5074574;28;20065;-92
2022/10/09 13:48:46;;;;;;;0.00;0.00;;;;;;;;;;5058238;28;20045;-91
2022/10/09 13:51:12;;;;;;;0.00;0.00;;;;;;;;;;5076297;28;20052;-94
2022/10/09 13:53:38;;;;;;;0.00;0.00;;;;;;;;;;5076425;28;20499;-89
2022/10/09 13:56:08;;;;;;;0.00;0.00;;;;;;;;;;5067443;28;20487;-92
2022/10/09 13:58:35;;;;;;;0.00;0.00;;;;;;;;;;5066463;28;20109;-92
2022/10/09 14:01:01;;;;;;;0.00;0.00;;;;;;;;;;5059814;28;20063;-86
2022/10/09 14:03:30;;;;;;;0.00;0.00;;;;;;;;;;5075828;28;20357;-92
2022/10/09 14:06:00;;;;;;;0.00;0.00;;;;;;;;;;5075248;28;20044;-92
2022/10/09 14:08:26;;;;;;;0.00;0.00;;;;;;;;;;5060247;28;20041;-89
2022/10/09 14:10:52;;;;;;;0.00;0.00;;;;;;;;;;5057623;28;20036;-91
2022/10/09 14:13:19;;;;;;;0.00;0.00;;;;;;;;;;5057638;28;20048;-92
2022/10/09 14:15:45;;;;;;;0.00;0.00;;;;;;;;;;5058413;28;20044;-94
2022/10/09 14:18:11;;;;;;;0.00;0.00;;;;;;;;;;5073992;28;20064;-90
2022/10/09 14:20:37;;;;;;;0.00;0.00;;;;;;;;;;5076598;28;20051;-93
2022/10/09 14:23:06;;;;;;;0.00;0.00;;;;;;;;;;5073312;28;20062;-91
2022/10/09 14:25:33;;;;;;;0.00;0.00;;;;;;;;;;5057430;28;20041;-92
2022/10/09 14:28:06;;;;;;;0.00;0.00;;;;;;;;;;5073623;28;20044;-88
2022/10/09 14:30:32;;;;;;;0.00;0.00;;;;;;;;;;5073674;28;20044;-92
2022/10/09 14:32:58;;;;;;;0.00;0.00;;;;;;;;;;5073499;28;20098;-92
2022/10/09 14:35:27;;;;;;;0.00;0.00;;;;;;;;;;5073353;28;20040;-93
2022/10/09 14:37:53;;;;;;;0.00;0.00;;;;;;;;;;5073442;28;20097;-88
2022/10/09 14:40:19;;;;;;;0.00;0.00;;;;;;;;;;5056353;28;20040;-92
2022/10/09 14:42:45;;;;;;;0.00;0.00;;;;;;;;;;5072887;28;20181;-93
2022/10/09 14:45:11;;;;;;;0.00;0.00;;;;;;;;;;5072866;28;20048;-93
2022/10/09 14:47:37;;;;;;;0.00;0.00;;;;;;;;;;5072655;28;20051;-92
2022/10/09 14:50:03;;;;;;;0.00;0.00;;;;;;;;;;5072844;28;20036;-92
2022/10/09 14:52:29;;;;;;;0.00;0.00;;;;;;;;;;5055846;28;20083;-90